Time;durP1;ratioP1;P1;durP2;ratioP2;P2;SDS_P1;SDS_P2;PMS_P1;PMS_P2;Temp;Humidity;BMP_temperature;BMP_pressure;BME280_temperature;BME280_humidity;BME280_pressure;Samples;Min_cycle;Max_cycle;Signal;HPM_P1;HPM_P2
2022/07/12 00:00:27;;;;;;;0.50;0.50;;;14.50;99.90;;;;;;5077784;28;20216;-72
2022/07/12 00:03:15;;;;;;;0.40;0.40;;;14.50;99.90;;;;;;5077866;28;20254;-69
2022/07/12 00:06:05;;;;;;;0.40;0.40;;;14.50;99.90;;;;;;5077397;28;20569;-70
2022/07/12 00:08:53;;;;;;;0.40;0.40;;;14.40;99.90;;;;;;5076493;28;20700;-71
2022/07/12 00:11:42;;;;;;;0.50;0.50;;;14.50;99.90;;;;;;5077809;28;20197;-71
2022/07/12 00:14:31;;;;;;;0.40;0.40;;;14.30;99.90;;;;;;5076877;28;20273;-70
2022/07/12 00:17:19;;;;;;;0.40;0.40;;;14.30;99.90;;;;;;5077072;28;20200;-71
2022/07/12 00:20:08;;;;;;;0.40;0.40;;;14.20;99.90;;;;;;5076045;28;20216;-70
2022/07/12 00:22:57;;;;;;;0.40;0.40;;;14.30;99.90;;;;;;5078093;28;20200;-70
2022/07/12 00:25:45;;;;;;;0.40;0.40;;;14.30;99.90;;;;;;5076657;28;20427;-70
2022/07/12 00:28:33;;;;;;;0.50;0.50;;;14.20;99.90;;;;;;5076680;28;20232;-70
2022/07/12 00:31:23;;;;;;;0.40;0.40;;;14.20;99.90;;;;;;5075246;28;20197;-70
2022/07/12 00:34:11;;;;;;;0.50;0.50;;;14.20;99.90;;;;;;5077130;28;20219;-72
2022/07/12 00:37:00;;;;;;;0.40;0.40;;;14.10;99.90;;;;;;5075709;28;20208;-71
2022/07/12 00:39:48;;;;;;;0.50;0.50;;;14.00;99.90;;;;;;5075843;28;20834;-71
2022/07/12 00:42:36;;;;;;;0.40;0.40;;;14.10;99.90;;;;;;5090160;28;20963;-72
2022/07/12 00:45:24;;;;;;;0.50;0.50;;;13.90;99.90;;;;;;5077944;28;20254;-70
2022/07/12 00:48:14;;;;;;;0.50;0.50;;;13.90;99.90;;;;;;5076709;28;20545;-72
2022/07/12 00:51:02;;;;;;;0.43;0.43;;;14.00;99.90;;;;;;5076083;28;20427;-70
2022/07/12 00:53:52;;;;;;;0.40;0.40;;;13.80;99.90;;;;;;5076808;28;20431;-73
2022/07/12 00:56:40;;;;;;;0.40;0.40;;;13.80;99.90;;;;;;5076079;28;20450;-71
2022/07/12 00:59:28;;;;;;;0.47;0.47;;;13.70;99.90;;;;;;5076603;28;20447;-71
2022/07/12 01:02:17;;;;;;;0.47;0.47;;;13.70;99.90;;;;;;5076068;28;20245;-70
2022/07/12 01:05:08;;;;;;;0.40;0.40;;;13.70;99.90;;;;;;5074677;28;20423;-70
2022/07/12 01:07:57;;;;;;;0.50;0.50;;;13.60;99.90;;;;;;5075991;28;20432;-71
2022/07/12 01:10:46;;;;;;;0.40;0.40;;;13.60;99.90;;;;;;5076262;28;20203;-70
2022/07/12 01:13:36;;;;;;;0.40;0.40;;;13.60;99.90;;;;;;5075219;28;20204;-70
2022/07/12 01:16:25;;;;;;;0.40;0.40;;;13.50;99.90;;;;;;5075340;28;20471;-70
2022/07/12 01:19:20;;;;;;;0.50;0.50;;;13.60;99.90;;;;;;5075252;28;20596;-70
2022/07/12 01:22:11;;;;;;;0.50;0.50;;;13.50;99.90;;;;;;5076629;28;20423;-70
2022/07/12 01:25:02;;;;;;;0.40;0.40;;;13.40;99.90;;;;;;5076267;28;20426;-70
2022/07/12 01:27:50;;;;;;;0.40;0.40;;;13.30;99.90;;;;;;5075473;28;20424;-71
2022/07/12 01:30:38;;;;;;;0.50;0.50;;;13.30;99.90;;;;;;5075667;28;20451;-69
2022/07/12 01:33:27;;;;;;;0.40;0.40;;;13.30;99.90;;;;;;5075828;28;20840;-70
2022/07/12 01:36:16;;;;;;;0.40;0.40;;;13.20;99.90;;;;;;5075153;28;20463;-71
2022/07/12 01:39:04;;;;;;;0.40;0.40;;;13.10;99.90;;;;;;5075031;28;20232;-72
2022/07/12 01:41:54;;;;;;;0.50;0.50;;;13.10;99.90;;;;;;5075010;28;20415;-72
2022/07/12 01:44:42;;;;;;;0.77;0.77;;;13.10;99.90;;;;;;5071550;28;20438;-74
2022/07/12 01:47:31;;;;;;;0.40;0.40;;;13.00;99.90;;;;;;5069097;28;20427;-70
2022/07/12 01:50:20;;;;;;;0.50;0.50;;;13.00;99.90;;;;;;5074202;28;20447;-70
2022/07/12 01:53:08;;;;;;;0.50;0.50;;;12.90;99.90;;;;;;5074916;28;20430;-72
2022/07/12 01:55:56;;;;;;;0.40;0.40;;;12.90;99.90;;;;;;5074774;28;20991;-70
2022/07/12 01:58:46;;;;;;;0.50;0.50;;;12.80;99.90;;;;;;5074448;28;20435;-71
2022/07/12 02:01:37;;;;;;;0.50;0.50;;;12.80;99.90;;;;;;5075376;28;20435;-70
2022/07/12 02:04:25;;;;;;;0.40;0.40;;;12.80;99.90;;;;;;5074087;28;20522;-70
2022/07/12 02:07:14;;;;;;;0.40;0.40;;;12.80;99.90;;;;;;5074952;28;20902;-70
2022/07/12 02:10:02;;;;;;;0.50;0.50;;;12.80;99.90;;;;;;5074836;28;20451;-69
2022/07/12 02:12:50;;;;;;;0.40;0.40;;;12.70;99.90;;;;;;5073989;28;20419;-70
2022/07/12 02:15:40;;;;;;;0.40;0.40;;;12.70;99.90;;;;;;5074164;28;20463;-71
2022/07/12 02:18:28;;;;;;;0.40;0.40;;;12.70;99.90;;;;;;5074069;28;20427;-71
2022/07/12 02:21:16;;;;;;;0.40;0.40;;;12.60;99.90;;;;;;5073833;28;20516;-71
2022/07/12 02:24:06;;;;;;;0.40;0.40;;;12.50;99.90;;;;;;5074913;28;20417;-70
2022/07/12 02:26:54;;;;;;;0.40;0.40;;;12.60;99.90;;;;;;5073865;28;20431;-70
2022/07/12 02:29:42;;;;;;;0.40;0.40;;;12.60;99.90;;;;;;5073696;28;20494;-71
2022/07/12 02:32:32;;;;;;;0.50;0.50;;;12.60;99.90;;;;;;5073647;28;20427;-72
2022/07/12 02:35:20;;;;;;;0.50;0.50;;;12.50;99.90;;;;;;5073966;28;20531;-72
2022/07/12 02:38:08;;;;;;;0.40;0.40;;;12.50;99.90;;;;;;5074573;28;20422;-71
2022/07/12 02:40:56;;;;;;;0.50;0.50;;;12.50;99.90;;;;;;5074264;28;20423;-70
2022/07/12 02:43:44;;;;;;;0.40;0.40;;;12.40;99.90;;;;;;5074551;28;20434;-71
2022/07/12 02:46:33;;;;;;;0.40;0.40;;;12.40;99.90;;;;;;5068855;28;20413;-71
2022/07/12 02:49:23;;;;;;;0.50;0.50;;;12.30;99.90;;;;;;5052838;28;20527;-74
2022/07/12 02:52:11;;;;;;;0.40;0.40;;;12.30;99.90;;;;;;5053361;28;20432;-71
2022/07/12 02:54:59;;;;;;;0.40;0.40;;;12.30;99.90;;;;;;5052622;28;20801;-71
2022/07/12 02:57:48;;;;;;;0.60;0.60;;;12.30;99.90;;;;;;5052598;28;20431;-71
2022/07/12 03:00:36;;;;;;;0.40;0.40;;;12.30;99.90;;;;;;5053826;28;20440;-72
2022/07/12 03:03:25;;;;;;;0.40;0.40;;;12.20;99.90;;;;;;5052394;28;20443;-71
2022/07/12 03:06:15;;;;;;;0.43;0.43;;;12.20;99.90;;;;;;5052771;28;20423;-70
2022/07/12 03:09:03;;;;;;;0.40;0.40;;;12.20;99.90;;;;;;5052588;28;20455;-70
2022/07/12 03:11:51;;;;;;;0.40;0.40;;;12.20;99.90;;;;;;5053480;28;20424;-70
2022/07/12 03:14:39;;;;;;;0.50;0.50;;;12.20;99.90;;;;;;5053229;28;20432;-70
2022/07/12 03:17:27;;;;;;;0.40;0.40;;;12.30;99.90;;;;;;5053366;28;20421;-70
2022/07/12 03:20:16;;;;;;;0.50;0.50;;;12.30;99.90;;;;;;5052687;28;20459;-71
2022/07/12 03:23:05;;;;;;;0.50;0.50;;;12.30;99.90;;;;;;5052783;28;20513;-71
2022/07/12 03:25:54;;;;;;;0.40;0.40;;;12.20;99.90;;;;;;5052726;28;20423;-71
2022/07/12 03:28:42;;;;;;;0.40;0.40;;;12.20;99.90;;;;;;5052979;28;20444;-71
2022/07/12 03:31:31;;;;;;;0.50;0.50;;;12.30;99.90;;;;;;5061561;28;20429;-71
2022/07/12 03:34:19;;;;;;;0.47;0.47;;;12.20;99.90;;;;;;5069671;28;20713;-70
2022/07/12 03:37:07;;;;;;;0.50;0.50;;;12.30;99.90;;;;;;5068858;28;20490;-70
2022/07/12 03:39:56;;;;;;;0.40;0.40;;;12.30;99.90;;;;;;5068256;28;20467;-70
2022/07/12 03:42:45;;;;;;;0.50;0.50;;;12.30;99.90;;;;;;5065693;28;20425;-72
2022/07/12 03:45:34;;;;;;;0.50;0.50;;;12.30;99.90;;;;;;5064178;28;20455;-73
2022/07/12 03:48:22;;;;;;;0.40;0.40;;;12.30;99.90;;;;;;5059800;28;20424;-71
2022/07/12 03:51:10;;;;;;;0.50;0.50;;;12.30;99.90;;;;;;5059629;28;20482;-71
2022/07/12 03:53:58;;;;;;;0.40;0.40;;;12.30;99.90;;;;;;5063029;28;20425;-71
2022/07/12 03:59:54;;;;;;;0.50;0.50;;;12.40;99.90;;;;;;5059386;28;20518;-71
2022/07/12 04:02:43;;;;;;;0.40;0.40;;;12.40;99.90;;;;;;5059082;28;20420;-72
2022/07/12 04:05:31;;;;;;;0.50;0.50;;;12.50;99.90;;;;;;5059299;28;20436;-70
2022/07/12 04:08:19;;;;;;;0.40;0.40;;;12.50;99.90;;;;;;5056503;28;20435;-70
2022/07/12 04:11:07;;;;;;;0.50;0.50;;;12.50;99.90;;;;;;5057090;28;20948;-70
2022/07/12 04:13:57;;;;;;;0.40;0.40;;;12.60;99.90;;;;;;5056521;28;20482;-72
2022/07/12 04:16:45;;;;;;;0.40;0.40;;;12.60;99.90;;;;;;5056584;28;20475;-70
2022/07/12 04:19:33;;;;;;;0.47;0.47;;;12.70;99.90;;;;;;5055330;28;20571;-71
2022/07/12 04:22:22;;;;;;;0.40;0.40;;;12.80;99.90;;;;;;5057079;28;20526;-71
2022/07/12 04:25:10;;;;;;;0.40;0.40;;;12.80;99.90;;;;;;5079136;23;20617;-70
2022/07/12 04:27:58;;;;;;;0.40;0.40;;;12.90;99.90;;;;;;5059787;28;20482;-70
2022/07/12 04:30:48;;;;;;;0.40;0.40;;;12.90;99.90;;;;;;5058943;28;20428;-69
2022/07/12 04:33:37;;;;;;;0.40;0.40;;;12.90;99.90;;;;;;5058420;28;20424;-70
2022/07/12 04:36:25;;;;;;;0.40;0.40;;;12.90;99.90;;;;;;5061378;28;21007;-69
2022/07/12 04:39:13;;;;;;;0.40;0.40;;;13.00;99.90;;;;;;5068453;28;20420;-70
2022/07/12 04:42:02;;;;;;;0.40;0.40;;;13.00;99.90;;;;;;5066040;28;21065;-70
2022/07/12 04:44:50;;;;;;;0.40;0.40;;;13.10;99.90;;;;;;5066915;28;20452;-69
2022/07/12 04:47:39;;;;;;;0.40;0.40;;;13.20;99.90;;;;;;5067834;28;20482;-69
2022/07/12 04:50:27;;;;;;;0.40;0.40;;;13.20;99.90;;;;;;5065169;28;20431;-68
2022/07/12 04:53:16;;;;;;;0.40;0.40;;;13.30;99.90;;;;;;5066237;28;20424;-69
2022/07/12 04:56:04;;;;;;;0.40;0.40;;;13.40;99.90;;;;;;5065079;28;20440;-69
2022/07/12 04:58:52;;;;;;;0.40;0.40;;;13.50;99.90;;;;;;5066167;28;20451;-69
2022/07/12 05:01:47;;;;;;;0.40;0.40;;;13.60;99.90;;;;;;5068355;28;20495;-70
2022/07/12 05:04:36;;;;;;;0.50;0.50;;;13.70;99.90;;;;;;5062888;28;20460;-69
2022/07/12 05:07:25;;;;;;;0.40;0.40;;;13.80;99.90;;;;;;5060501;28;20442;-69
2022/07/12 05:10:13;;;;;;;0.40;0.40;;;13.90;99.90;;;;;;5067361;28;20432;-70
2022/07/12 05:13:01;;;;;;;0.40;0.40;;;13.90;99.90;;;;;;5060688;28;20435;-70
2022/07/12 05:15:50;;;;;;;0.50;0.50;;;14.10;99.90;;;;;;5057136;28;21007;-70
2022/07/12 05:18:38;;;;;;;0.40;0.40;;;14.20;99.90;;;;;;5057181;28;20443;-70
2022/07/12 05:21:27;;;;;;;0.40;0.40;;;14.20;99.90;;;;;;5057025;28;20424;-70
2022/07/12 05:24:16;;;;;;;0.40;0.40;;;14.40;99.90;;;;;;5057249;28;20194;-70
2022/07/12 05:27:04;;;;;;;0.40;0.40;;;14.50;99.90;;;;;;5054978;28;20210;-70
2022/07/12 05:29:53;;;;;;;0.40;0.40;;;14.60;99.90;;;;;;5056410;28;20428;-70
2022/07/12 05:32:41;;;;;;;0.40;0.40;;;14.70;99.90;;;;;;5056647;28;20197;-70
2022/07/12 05:35:29;;;;;;;0.40;0.40;;;14.80;99.90;;;;;;5056323;28;20479;-69
2022/07/12 05:38:18;;;;;;;0.40;0.40;;;14.90;99.90;;;;;;5054863;28;20217;-70
2022/07/12 05:41:06;;;;;;;0.40;0.40;;;15.00;99.90;;;;;;5055024;28;20744;-70
2022/07/12 05:43:55;;;;;;;0.40;0.40;;;15.10;99.90;;;;;;5058452;28;21112;-70
2022/07/12 05:46:43;;;;;;;0.40;0.40;;;15.20;99.90;;;;;;5056197;28;20198;-70
2022/07/12 05:49:31;;;;;;;0.40;0.40;;;15.30;99.90;;;;;;5053869;28;20447;-70
2022/07/12 05:55:27;;;;;;;0.40;0.40;;;15.50;99.90;;;;;;5054591;28;20447;-69
2022/07/12 05:58:15;;;;;;;0.40;0.40;;;15.60;99.90;;;;;;5054388;28;20232;-70
2022/07/12 06:01:03;;;;;;;1.70;0.90;;;15.70;99.90;;;;;;5051119;28;20586;-70
2022/07/12 06:03:51;;;;;;;0.40;0.40;;;15.80;99.90;;;;;;5051352;28;20255;-70
2022/07/12 06:06:39;;;;;;;0.50;0.50;;;15.90;99.90;;;;;;5053589;28;20193;-70
2022/07/12 06:09:28;;;;;;;0.40;0.40;;;16.00;99.90;;;;;;5055468;28;20975;-69
2022/07/12 06:12:17;;;;;;;0.40;0.40;;;16.20;99.90;;;;;;5053644;28;20197;-69
2022/07/12 06:15:07;;;;;;;0.97;0.97;;;16.30;99.90;;;;;;5053585;28;20240;-70
2022/07/12 06:17:55;;;;;;;0.40;0.40;;;16.30;99.90;;;;;;5053116;28;20615;-70
2022/07/12 06:20:43;;;;;;;0.50;0.50;;;16.40;99.90;;;;;;5052278;28;20221;-70
2022/07/12 06:23:32;;;;;;;0.40;0.40;;;16.40;99.90;;;;;;5053577;28;20217;-70
2022/07/12 06:26:20;;;;;;;0.40;0.40;;;16.40;99.90;;;;;;5052933;28;20229;-70
2022/07/12 06:29:10;;;;;;;0.40;0.40;;;16.50;99.90;;;;;;5052763;28;20688;-70
2022/07/12 06:31:58;;;;;;;0.40;0.40;;;16.70;99.90;;;;;;5053152;28;20291;-70
2022/07/12 06:34:47;;;;;;;0.50;0.50;;;16.80;99.90;;;;;;5054111;28;20594;-70
2022/07/12 06:37:35;;;;;;;0.40;0.40;;;16.80;99.90;;;;;;5053595;28;20752;-69
2022/07/12 06:40:23;;;;;;;0.50;0.50;;;16.90;99.90;;;;;;5052909;28;20217;-70
2022/07/12 06:43:13;;;;;;;0.40;0.40;;;16.90;99.90;;;;;;5053814;28;20581;-70
2022/07/12 06:46:03;;;;;;;0.40;0.40;;;17.00;99.90;;;;;;5053842;28;20705;-70
2022/07/12 06:48:51;;;;;;;0.40;0.40;;;17.10;99.90;;;;;;5053005;28;20287;-69
2022/07/12 06:51:39;;;;;;;0.40;0.40;;;17.20;99.90;;;;;;5053755;28;20197;-70
2022/07/12 06:54:27;;;;;;;0.40;0.40;;;18.20;99.90;;;;;;5053453;28;20212;-70
2022/07/12 06:57:15;;;;;;;0.40;0.40;;;17.30;99.90;;;;;;5044905;28;20229;-69
2022/07/12 07:00:05;;;;;;;0.60;0.50;;;17.40;99.90;;;;;;5048140;28;20228;-70
2022/07/12 07:02:55;;;;;;;0.40;0.40;;;17.50;99.90;;;;;;5056138;28;20201;-69
2022/07/12 07:05:44;;;;;;;0.45;0.45;;;17.70;99.90;;;;;;5054239;28;20229;-70
2022/07/12 07:08:32;;;;;;;4.53;0.77;;;17.70;99.90;;;;;;5054216;28;20666;-69
2022/07/12 07:11:20;;;;;;;0.50;0.50;;;17.80;99.90;;;;;;5054411;28;20201;-70
2022/07/12 07:14:08;;;;;;;0.40;0.40;;;;;;;;;;5054102;28;20247;-69
2022/07/12 07:16:57;;;;;;;0.40;0.40;;;18.00;99.90;;;;;;5053693;28;20197;-69
2022/07/12 07:19:46;;;;;;;0.50;0.50;;;18.20;99.90;;;;;;5052747;28;20233;-70
2022/07/12 07:22:35;;;;;;;0.43;0.43;;;18.20;99.90;;;;;;5047539;28;20193;-70
2022/07/12 07:25:23;;;;;;;0.40;0.40;;;18.40;99.90;;;;;;5059032;28;20231;-69
2022/07/12 07:28:11;;;;;;;0.40;0.40;;;18.50;99.90;;;;;;5049327;28;20197;-70
2022/07/12 07:30:59;;;;;;;0.50;0.50;;;18.50;99.90;;;;;;5053369;28;20210;-70
2022/07/12 07:33:47;;;;;;;0.40;0.40;;;18.60;99.90;;;;;;5061231;28;20201;-70
2022/07/12 07:36:37;;;;;;;0.40;0.40;;;18.70;99.90;;;;;;5063501;28;20202;-70
2022/07/12 07:39:25;;;;;;;0.52;0.52;;;18.70;99.90;;;;;;5060133;28;20212;-70
2022/07/12 07:42:13;;;;;;;0.70;0.70;;;18.80;99.90;;;;;;5067567;28;20205;-70
2022/07/12 07:45:03;;;;;;;0.43;0.43;;;19.00;99.90;;;;;;5062893;28;20232;-70
2022/07/12 07:48:05;;;;;;;0.60;0.60;;;19.00;99.90;;;;;;5064428;28;20205;-70
2022/07/12 07:51:11;;;;;;;0.50;0.50;;;19.00;99.90;;;;;;5063046;28;20205;-70
2022/07/12 07:54:02;;;;;;;0.50;0.50;;;19.10;99.90;;;;;;5063563;28;20250;-70
2022/07/12 07:56:50;;;;;;;0.40;0.40;;;19.20;99.90;;;;;;5057160;28;20205;-70
2022/07/12 07:59:38;;;;;;;0.40;0.40;;;18.30;99.90;;;;;;5056051;28;20221;-70
2022/07/12 08:02:26;;;;;;;0.40;0.40;;;19.40;99.90;;;;;;5059936;28;20243;-70
2022/07/12 08:05:15;;;;;;;0.40;0.40;;;19.50;99.90;;;;;;5054678;28;20213;-69
2022/07/12 08:08:04;;;;;;;0.50;0.50;;;19.60;99.90;;;;;;5056727;28;20617;-70
2022/07/12 08:10:54;;;;;;;0.40;0.40;;;19.70;99.90;;;;;;5051526;28;20677;-70
2022/07/12 08:13:42;;;;;;;0.40;0.40;;;19.80;99.90;;;;;;5056381;28;20688;-70
2022/07/12 08:16:30;;;;;;;0.40;0.40;;;19.90;99.90;;;;;;5056618;28;20253;-71
2022/07/12 08:19:18;;;;;;;1.30;1.30;;;20.00;99.90;;;;;;5055387;28;20221;-70
2022/07/12 08:22:06;;;;;;;0.60;0.60;;;20.00;99.90;;;;;;5055820;28;20693;-70
2022/07/12 08:24:55;;;;;;;0.40;0.40;;;20.00;99.90;;;;;;5055429;28;20301;-70
2022/07/12 08:27:44;;;;;;;0.40;0.40;;;20.10;99.90;;;;;;5059665;28;20204;-70
2022/07/12 08:30:32;;;;;;;0.40;0.40;;;20.20;99.90;;;;;;5058892;28;20205;-69
2022/07/12 08:33:20;;;;;;;0.40;0.40;;;20.30;99.90;;;;;;5057468;28;20205;-71
2022/07/12 08:36:09;;;;;;;0.40;0.40;;;20.30;99.90;;;;;;5055739;28;20708;-70
2022/07/12 08:38:57;;;;;;;0.40;0.40;;;20.40;99.90;;;;;;5056249;28;20229;-71
2022/07/12 08:41:46;;;;;;;0.40;0.40;;;20.50;99.90;;;;;;5055195;28;20229;-70
2022/07/12 08:44:35;;;;;;;0.50;0.50;;;20.60;99.90;;;;;;5055653;28;20263;-70
2022/07/12 08:47:24;;;;;;;0.40;0.40;;;20.60;99.90;;;;;;5055522;28;20213;-72
2022/07/12 08:50:14;;;;;;;0.40;0.40;;;20.70;99.90;;;;;;5054857;28;20255;-71
2022/07/12 08:53:03;;;;;;;0.40;0.40;;;20.80;99.90;;;;;;5054440;28;20820;-70
2022/07/12 08:55:51;;;;;;;0.70;0.45;;;20.80;99.90;;;;;;5054642;28;20213;-69
2022/07/12 08:58:39;;;;;;;0.40;0.40;;;20.80;99.90;;;;;;5054495;28;20217;-70
2022/07/12 09:01:42;;;;;;;0.40;0.40;;;20.90;99.90;;;;;;5057631;28;20197;-70
2022/07/12 09:04:30;;;;;;;0.40;0.40;;;20.90;99.90;;;;;;5054502;28;20217;-71
2022/07/12 09:07:19;;;;;;;0.40;0.40;;;21.10;99.90;;;;;;5070367;28;20197;-70
2022/07/12 09:10:09;;;;;;;0.40;0.40;;;21.10;99.90;;;;;;5062302;28;20193;-69
2022/07/12 09:12:57;;;;;;;0.50;0.50;;;21.20;99.90;;;;;;5065128;28;20225;-70
2022/07/12 09:15:47;;;;;;;0.50;0.50;;;21.20;99.90;;;;;;5063941;28;20299;-70
2022/07/12 09:18:37;;;;;;;0.57;0.57;;;21.30;99.90;;;;;;5073724;28;20229;-70
2022/07/12 09:21:32;;;;;;;0.43;0.43;;;21.30;99.90;;;;;;5051414;28;20202;-70
2022/07/12 09:24:24;;;;;;;0.40;0.40;;;21.50;99.90;;;;;;5054499;28;20283;-70
2022/07/12 09:27:13;;;;;;;0.60;0.60;;;21.50;99.90;;;;;;5060069;28;20209;-70
2022/07/12 09:30:04;;;;;;;0.60;0.60;;;21.50;99.60;;;;;;5058158;28;20202;-70
2022/07/12 09:36:09;;;;;;;0.40;0.40;;;21.40;99.90;;;;;;5068608;28;20226;-69
2022/07/12 09:39:00;;;;;;;0.40;0.40;;;21.40;99.70;;;;;;5063433;28;20310;-70
2022/07/12 09:41:49;;;;;;;0.40;0.40;;;21.50;98.50;;;;;;5061298;28;20666;-70
2022/07/12 09:44:37;;;;;;;0.70;0.70;;;21.60;98.40;;;;;;5061154;28;20248;-71
2022/07/12 09:47:26;;;;;;;0.40;0.40;;;21.70;99.70;;;;;;5072373;28;20205;-71
2022/07/12 09:50:14;;;;;;;1.02;1.02;;;21.70;99.70;;;;;;5061219;28;20428;-70
2022/07/12 09:53:05;;;;;;;0.50;0.50;;;21.90;98.50;;;;;;5062062;28;20613;-69
2022/07/12 09:55:54;;;;;;;0.40;0.40;;;22.00;98.30;;;;;;5066648;28;20262;-70
2022/07/12 09:58:52;;;;;;;0.40;0.40;;;22.00;97.70;;;;;;5063737;28;20302;-70
2022/07/12 10:01:40;;;;;;;0.40;0.40;;;21.80;97.00;;;;;;5065815;28;20694;-70
2022/07/12 10:04:30;;;;;;;0.40;0.40;;;22.10;97.60;;;;;;5057308;28;20251;-71
2022/07/12 10:07:19;;;;;;;0.60;0.50;;;22.10;97.80;;;;;;5058129;28;20202;-70
2022/07/12 10:10:10;;;;;;;0.40;0.40;;;22.20;97.00;;;;;;5057476;28;20201;-69
2022/07/12 10:12:59;;;;;;;0.40;0.40;;;22.20;96.80;;;;;;5055307;28;20194;-69
2022/07/12 10:15:49;;;;;;;0.40;0.40;;;22.20;97.70;;;;;;5054001;28;20233;-69
2022/07/12 10:18:38;;;;;;;0.50;0.50;;;22.20;98.50;;;;;;5054271;28;20670;-69
2022/07/12 10:21:26;;;;;;;0.40;0.40;;;22.20;98.50;;;;;;5053510;28;20205;-70
2022/07/12 10:24:48;;;;;;;0.60;0.60;;;22.30;98.40;;;;;;5053522;28;20197;-70
2022/07/12 10:27:50;;;;;;;0.40;0.40;;;22.50;98.40;;;;;;5049244;28;20204;-69
2022/07/12 10:30:43;;;;;;;4.22;4.03;;;22.50;98.00;;;;;;5053253;28;20193;-70
2022/07/12 10:33:32;;;;;;;0.93;0.50;;;22.60;98.00;;;;;;5054025;28;20197;-68
2022/07/12 10:36:20;;;;;;;0.50;0.50;;;22.50;98.00;;;;;;5054147;28;20217;-68
2022/07/12 10:39:13;;;;;;;0.40;0.40;;;22.40;98.60;;;;;;5053202;28;20249;-68
2022/07/12 10:42:14;;;;;;;0.75;0.75;;;22.50;99.10;;;;;;5053633;28;20181;-68
2022/07/12 10:45:14;;;;;;;0.40;0.40;;;22.60;98.00;;;;;;5054237;28;20611;-69
2022/07/12 10:48:04;;;;;;;0.60;0.60;;;22.70;98.60;;;;;;5051025;28;20205;-68
2022/07/12 10:50:58;;;;;;;1.77;0.60;;;22.90;99.40;;;;;;5039627;28;20212;-68
2022/07/12 10:53:49;;;;;;;0.50;0.50;;;23.10;98.90;;;;;;5058514;28;20580;-69
2022/07/12 10:56:56;;;;;;;0.40;0.40;;;23.30;99.00;;;;;;5060263;28;20335;-70
2022/07/12 10:59:51;;;;;;;0.40;0.40;;;23.40;98.20;;;;;;5054825;28;20245;-69
2022/07/12 11:02:41;;;;;;;0.40;0.40;;;23.40;98.10;;;;;;5058061;28;20215;-68
2022/07/12 11:05:30;;;;;;;0.40;0.40;;;23.30;95.70;;;;;;5060992;28;20227;-69
2022/07/12 11:08:18;;;;;;;0.40;0.40;;;23.30;95.60;;;;;;5061965;28;20204;-69
2022/07/12 11:11:06;;;;;;;0.60;0.60;;;23.40;96.80;;;;;;5062794;28;20185;-69
2022/07/12 11:13:54;;;;;;;1.83;0.50;;;23.60;97.60;;;;;;5034625;28;20198;-69
2022/07/12 11:16:47;;;;;;;0.40;0.40;;;23.80;97.00;;;;;;5038399;28;20216;-68
2022/07/12 11:19:36;;;;;;;0.65;0.65;;;23.90;95.40;;;;;;5041056;28;20296;-70
2022/07/12 11:22:26;;;;;;;0.50;0.50;;;24.20;94.90;;;;;;5040650;28;20682;-68
2022/07/12 11:25:14;;;;;;;0.40;0.40;;;24.50;95.80;;;;;;5038187;28;20276;-68
2022/07/12 11:28:04;;;;;;;0.40;0.40;;;24.50;96.10;;;;;;5049301;28;20727;-68
2022/07/12 11:30:53;;;;;;;0.40;0.40;;;24.40;96.40;;;;;;5057437;28;20201;-68
2022/07/12 11:33:43;;;;;;;0.50;0.50;;;24.10;96.80;;;;;;5059533;28;20268;-68
2022/07/12 11:36:33;;;;;;;0.40;0.40;;;24.10;93.10;;;;;;5059254;28;20245;-68
2022/07/12 11:39:32;;;;;;;0.50;0.50;;;24.20;93.30;;;;;;5059282;28;20564;-71
2022/07/12 11:42:21;;;;;;;0.40;0.40;;;24.40;93.10;;;;;;5055434;28;20616;-68
2022/07/12 11:45:09;;;;;;;0.70;0.50;;;24.80;93.10;;;;;;5060397;28;20220;-68
2022/07/12 11:47:59;;;;;;;0.50;0.50;;;25.10;92.60;;;;;;5061754;28;20196;-69
2022/07/12 11:50:48;;;;;;;0.77;0.60;;;25.00;92.20;;;;;;5068802;28;20196;-70
2022/07/12 11:53:39;;;;;;;0.40;0.40;;;24.90;91.10;;;;;;5067974;28;20205;-70
2022/07/12 11:56:31;;;;;;;0.55;0.50;;;25.10;91.20;;;;;;5067365;28;20216;-69
2022/07/12 11:59:23;;;;;;;0.43;0.43;;;25.30;91.30;;;;;;5077626;28;20287;-69
2022/07/12 12:02:13;;;;;;;0.40;0.40;;;25.20;91.10;;;;;;5063703;28;20199;-69
2022/07/12 12:05:02;;;;;;;0.40;0.40;;;24.90;92.00;;;;;;5069823;28;20318;-69
2022/07/12 12:07:50;;;;;;;0.50;0.50;;;24.90;91.60;;;;;;5063827;28;20197;-69
2022/07/12 12:10:53;;;;;;;0.40;0.40;;;25.40;91.50;;;;;;5069303;28;20276;-70
2022/07/12 12:13:41;;;;;;;0.40;0.40;;;25.80;91.60;;;;;;5062436;28;20677;-70
2022/07/12 12:16:33;;;;;;;0.40;0.40;;;26.10;90.80;;;;;;5060883;28;20213;-69
2022/07/12 12:19:22;;;;;;;0.43;0.43;;;26.10;90.60;;;;;;5058260;28;20197;-69
2022/07/12 12:22:28;;;;;;;0.40;0.40;;;25.90;89.60;;;;;;5059079;28;20215;-70
2022/07/12 12:25:17;;;;;;;0.40;0.40;;;25.50;90.10;;;;;;5067802;28;20241;-69
2022/07/12 12:28:06;;;;;;;0.47;0.45;;;25.70;89.20;;;;;;5062027;28;20627;-69
2022/07/12 12:31:03;;;;;;;0.40;0.40;;;25.70;90.10;;;;;;5059608;28;20197;-69
2022/07/12 12:33:52;;;;;;;0.40;0.40;;;25.60;90.20;;;;;;5056496;28;20241;-70
2022/07/12 12:36:41;;;;;;;0.40;0.40;;;25.80;90.50;;;;;;5055353;28;20689;-70
2022/07/12 12:39:30;;;;;;;0.40;0.40;;;26.30;90.30;;;;;;5058730;28;20788;-72
2022/07/12 12:42:24;;;;;;;0.50;0.50;;;26.60;87.20;;;;;;5064972;28;20212;-70
2022/07/12 12:45:20;;;;;;;0.40;0.40;;;26.40;87.60;;;;;;5064670;28;20236;-69
2022/07/12 12:48:08;;;;;;;0.40;0.40;;;26.70;88.50;;;;;;5035260;28;20321;-69
2022/07/12 12:51:05;;;;;;;0.60;0.60;;;26.90;87.20;;;;;;5037007;28;20209;-70
2022/07/12 12:53:57;;;;;;;0.40;0.40;;;29.00;83.20;;;;;;5034829;28;20210;-70
2022/07/12 12:56:45;;;;;;;0.40;0.40;;;29.60;81.00;;;;;;5039145;28;20190;-70
2022/07/12 12:59:34;;;;;;;0.40;0.40;;;30.90;76.90;;;;;;5053461;28;20250;-70
2022/07/12 13:02:24;;;;;;;0.40;0.40;;;32.70;73.40;;;;;;5053165;28;20551;-71
2022/07/12 13:05:13;;;;;;;0.40;0.40;;;34.80;66.70;;;;;;5052940;28;20598;-70
2022/07/12 13:08:02;;;;;;;0.40;0.40;;;34.50;62.60;;;;;;5052864;28;20202;-70
2022/07/12 13:11:18;;;;;;;0.40;0.40;;;33.90;62.30;;;;;;5052663;28;20248;-71
2022/07/12 13:14:00;;;;;;;0.40;0.40;;;34.60;60.40;;;;;;5052804;28;20677;-70
2022/07/12 13:16:48;;;;;;;0.40;0.40;;;34.90;59.80;;;;;;5053664;28;20204;-69
2022/07/12 13:19:38;;;;;;;0.40;0.40;;;34.70;58.50;;;;;;5053029;28;20241;-70
2022/07/12 13:22:26;;;;;;;0.50;0.50;;;35.40;58.00;;;;;;5052739;28;20573;-70
2022/07/12 13:25:15;;;;;;;0.50;0.50;;;37.90;55.00;;;;;;5051368;28;20225;-70
2022/07/12 13:28:03;;;;;;;0.40;0.40;;;37.60;53.30;;;;;;5051872;28;20212;-71
2022/07/12 13:30:54;;;;;;;0.50;0.50;;;37.60;52.70;;;;;;5051152;28;20201;-72
2022/07/12 13:33:42;;;;;;;0.40;0.40;;;38.60;51.10;;;;;;5051295;28;20224;-69
2022/07/12 13:36:32;;;;;;;0.40;0.40;;;40.00;48.90;;;;;;5051328;28;20221;-69
2022/07/12 13:42:26;;;;;;;0.73;0.73;;;40.40;46.60;;;;;;5050527;28;20589;-69
2022/07/12 13:45:16;;;;;;;0.40;0.40;;;40.30;45.30;;;;;;5050390;28;20722;-69
2022/07/12 13:48:04;;;;;;;0.50;0.50;;;40.90;46.10;;;;;;5050744;28;20250;-70
2022/07/12 13:50:53;;;;;;;0.90;0.90;;;41.30;43.90;;;;;;5050285;28;20208;-69
2022/07/12 13:54:02;;;;;;;0.60;0.60;;;42.50;43.40;;;;;;5050755;28;20292;-69
2022/07/12 13:56:50;;;;;;;0.50;0.50;;;42.20;41.20;;;;;;5050174;28;20194;-69
2022/07/12 13:59:39;;;;;;;0.50;0.50;;;40.50;43.10;;;;;;5049682;28;20202;-69
2022/07/12 14:02:27;;;;;;;0.50;0.50;;;40.10;43.30;;;;;;5049625;28;20217;-69
2022/07/12 14:05:16;;;;;;;0.40;0.40;;;41.00;43.60;;;;;;5050322;28;20224;-69
2022/07/12 14:08:05;;;;;;;0.40;0.40;;;43.30;41.80;;;;;;5049779;28;20201;-69
2022/07/12 14:10:54;;;;;;;0.50;0.50;;;44.30;39.80;;;;;;5050337;28;20201;-70
2022/07/12 14:13:42;;;;;;;0.40;0.40;;;43.50;39.50;;;;;;5048318;28;20630;-70
2022/07/12 14:16:31;;;;;;;0.40;0.40;;;42.30;40.20;;;;;;5049623;28;20216;-70
2022/07/12 14:19:19;;;;;;;0.50;0.50;;;41.80;40.60;;;;;;5058307;28;20197;-70
2022/07/12 14:22:07;;;;;;;0.40;0.40;;;42.10;39.50;;;;;;5052518;28;20223;-69
2022/07/12 14:24:56;;;;;;;0.40;0.40;;;41.60;40.10;;;;;;5057153;28;20720;-70
2022/07/12 14:27:45;;;;;;;0.40;0.40;;;40.70;40.60;;;;;;5055290;28;20204;-70
2022/07/12 14:30:34;;;;;;;0.50;0.50;;;41.00;41.50;;;;;;5051629;28;20291;-69
2022/07/12 14:33:23;;;;;;;0.40;0.40;;;41.20;40.10;;;;;;5056583;28;20197;-72
2022/07/12 14:36:11;;;;;;;0.40;0.40;;;41.40;39.80;;;;;;5059477;28;20221;-72
2022/07/12 14:38:59;;;;;;;0.50;0.50;;;41.80;39.50;;;;;;5056998;28;20204;-70
2022/07/12 14:41:48;;;;;;;0.50;0.50;;;42.20;39.30;;;;;;5057021;28;20674;-71
2022/07/12 14:44:37;;;;;;;0.40;0.40;;;41.90;39.30;;;;;;5059153;28;20221;-69
2022/07/12 14:47:26;;;;;;;0.43;0.43;;;39.50;41.60;;;;;;5057146;28;20194;-70
2022/07/12 14:50:14;;;;;;;0.40;0.40;;;39.80;41.10;;;;;;5057952;28;20197;-69
2022/07/12 14:53:02;;;;;;;0.50;0.50;;;40.40;40.30;;;;;;5055618;28;20670;-70
2022/07/12 14:55:50;;;;;;;0.40;0.40;;;40.30;40.70;;;;;;5057309;28;20607;-70